createdAt,value
2023-03-24T00:01:42.627Z,84.16
2023-03-24T00:03:48.804Z,84.06
2023-03-24T00:05:58.516Z,84.19
2023-03-24T00:08:02.654Z,84.05
2023-03-24T00:10:09.900Z,84.06
2023-03-24T00:12:18.543Z,84.11
2023-03-24T00:14:22.127Z,84.12
2023-03-24T00:16:27.116Z,84.06
2023-03-24T00:18:30.880Z,84.24
2023-03-24T00:20:35.044Z,84.16
2023-03-24T00:22:42.319Z,84.22
2023-03-24T00:24:46.807Z,84.08
2023-03-24T00:26:51.952Z,84.07
2023-03-24T00:28:57.200Z,84.17
2023-03-24T00:31:03.317Z,84.13
2023-03-24T00:33:08.276Z,84.22
2023-03-24T00:35:13.979Z,84.23
2023-03-24T00:37:17.610Z,84.17
2023-03-24T00:39:22.007Z,84.09
2023-03-24T00:41:27.346Z,84.33
2023-03-24T00:43:31.198Z,84.54
2023-03-24T00:45:34.786Z,84.31
2023-03-24T00:47:38.616Z,84.43
2023-03-24T00:49:44.756Z,84.30
2023-03-24T00:51:48.230Z,84.48
2023-03-24T00:53:57.872Z,84.32
2023-03-24T00:56:01.358Z,84.44
2023-03-24T00:58:05.264Z,84.67
2023-03-24T01:00:14.384Z,84.86
2023-03-24T01:02:22.300Z,84.93
2023-03-24T01:04:26.487Z,85.19
2023-03-24T01:06:31.521Z,85.38
2023-03-24T01:08:35.225Z,85.36
2023-03-24T01:10:50.204Z,85.42
2023-03-24T01:12:55.033Z,85.71
2023-03-24T01:14:59.996Z,85.63
2023-03-24T01:17:03.717Z,85.85
2023-03-24T01:19:09.293Z,85.92
2023-03-24T01:21:14.436Z,86.16
2023-03-24T01:23:23.926Z,86.34
2023-03-24T01:25:28.102Z,86.31
2023-03-24T01:27:32.084Z,86.37
2023-03-24T01:29:35.674Z,86.64
2023-03-24T01:31:39.352Z,86.75
2023-03-24T01:33:42.896Z,86.80
2023-03-24T01:35:46.798Z,86.99
2023-03-24T01:37:50.433Z,86.89
2023-03-24T01:39:55.411Z,87.01
2023-03-24T01:41:59.027Z,87.18
2023-03-24T01:44:03.112Z,87.23
2023-03-24T01:46:16.451Z,87.34
2023-03-24T01:48:26.234Z,87.43
2023-03-24T01:50:30.112Z,87.64
2023-03-24T01:52:37.249Z,87.68
2023-03-24T01:54:44.097Z,87.74
2023-03-24T01:56:55.667Z,87.58
2023-03-24T01:59:02.743Z,87.86
2023-03-24T02:01:30.169Z,87.94
2023-03-24T02:03:48.140Z,87.81
2023-03-24T02:05:54.586Z,87.99
2023-03-24T02:08:06.017Z,88.04
2023-03-24T02:10:13.494Z,88.11
2023-03-24T02:12:18.369Z,88.02
2023-03-24T02:14:22.646Z,88.27
2023-03-24T02:16:39.180Z,88.15
2023-03-24T02:18:54.909Z,88.22
2023-03-24T02:21:33.415Z,88.30
2023-03-24T02:23:57.215Z,88.36
2023-03-24T02:26:32.117Z,88.31
2023-03-24T02:28:44.468Z,88.50
2023-03-24T02:31:16.181Z,88.64
2023-03-24T02:33:37.037Z,88.43
2023-03-24T02:36:26.297Z,88.58
2023-03-24T02:39:17.342Z,88.66
2023-03-24T02:41:32.321Z,88.73
2023-03-24T02:43:48.927Z,88.65
2023-03-24T02:46:07.016Z,88.73
2023-03-24T02:48:24.634Z,88.72
2023-03-24T02:50:33.247Z,88.91
2023-03-24T02:52:46.215Z,89.04
2023-03-24T02:54:57.507Z,88.67
2023-03-24T02:57:06.998Z,88.93
2023-03-24T02:59:37.580Z,89.01
2023-03-24T03:01:57.747Z,89.12
2023-03-24T03:04:12.670Z,89.05
2023-03-24T03:06:22.141Z,89.23
2023-03-24T03:08:29.754Z,89.30
2023-03-24T03:10:38.469Z,89.35
2023-03-24T03:12:48.099Z,89.45
2023-03-24T03:14:56.076Z,89.64
2023-03-24T03:17:04.913Z,89.54
2023-03-24T03:19:18.144Z,89.47
2023-03-24T03:21:27.097Z,89.67
2023-03-24T03:23:35.913Z,89.53
2023-03-24T03:25:46.434Z,89.90
2023-03-24T03:27:54.581Z,89.91
2023-03-24T03:30:03.213Z,89.84
2023-03-24T03:32:10.823Z,89.78
2023-03-24T03:34:22.114Z,89.90
2023-03-24T03:36:30.917Z,89.95
2023-03-24T03:38:49.183Z,90.05
2023-03-24T03:40:54.368Z,90.00
2023-03-24T03:43:01.853Z,90.14
2023-03-24T03:45:07.091Z,90.11
2023-03-24T03:47:10.530Z,90.05
2023-03-24T03:49:19.874Z,90.36
2023-03-24T03:51:23.586Z,90.25
2023-03-24T03:53:40.348Z,90.42
2023-03-24T03:55:45.555Z,90.31
2023-03-24T03:57:49.772Z,90.41
2023-03-24T04:00:20.009Z,90.44
2023-03-24T04:02:52.686Z,90.39
2023-03-24T04:05:29.326Z,90.34
2023-03-24T04:08:03.766Z,90.51
2023-03-24T04:10:47.709Z,90.42
2023-03-24T04:13:15.190Z,90.53
2023-03-24T04:15:47.962Z,90.30
2023-03-24T04:18:31.694Z,90.60
2023-03-24T04:20:47.557Z,90.43
2023-03-24T04:23:03.180Z,90.39
2023-03-24T04:25:16.937Z,90.59
2023-03-24T04:27:28.938Z,90.30
2023-03-24T04:29:42.752Z,90.39
2023-03-24T04:31:53.575Z,90.30
2023-03-24T04:34:03.703Z,90.38
2023-03-24T04:36:18.260Z,90.36
2023-03-24T04:38:42.764Z,90.27
2023-03-24T04:40:55.647Z,90.25
2023-03-24T04:43:01.602Z,90.09
2023-03-24T04:45:08.157Z,90.29
2023-03-24T04:47:38.644Z,90.33
2023-03-24T04:50:02.051Z,90.39
2023-03-24T04:52:06.877Z,90.22
2023-03-24T04:54:11.423Z,90.30
2023-03-24T04:56:39.876Z,90.34
2023-03-24T04:59:07.160Z,90.36
2023-03-24T05:01:10.891Z,90.34
2023-03-24T05:03:20.334Z,90.46
2023-03-24T05:05:23.667Z,90.46
2023-03-24T05:07:27.294Z,90.64
2023-03-24T05:09:34.662Z,90.62
2023-03-24T05:11:38.870Z,90.62
2023-03-24T05:13:46.940Z,90.72
2023-03-24T05:15:51.125Z,90.72
2023-03-24T05:18:08.984Z,90.86
2023-03-24T05:20:15.230Z,90.80
2023-03-24T05:22:21.883Z,91.04
2023-03-24T05:24:25.230Z,91.10
2023-03-24T05:26:29.975Z,91.08
2023-03-24T05:28:41.667Z,91.29
2023-03-24T05:30:45.016Z,91.11
2023-03-24T05:33:05.744Z,91.33
2023-03-24T05:35:09.882Z,91.36
2023-03-24T05:37:16.988Z,91.33
2023-03-24T05:39:24.583Z,91.50
2023-03-24T05:41:42.289Z,91.30
2023-03-24T05:43:45.568Z,91.39
2023-03-24T05:45:51.467Z,91.36
2023-03-24T05:48:07.554Z,91.28
2023-03-24T05:50:29.058Z,91.30
2023-03-24T05:52:33.787Z,91.48
2023-03-24T05:54:53.050Z,91.22
2023-03-24T05:57:00.138Z,91.41
2023-03-24T05:59:11.862Z,91.51
2023-03-24T06:01:35.836Z,91.41
2023-03-24T06:03:52.811Z,91.28
2023-03-24T06:05:56.117Z,91.36
2023-03-24T06:08:01.534Z,91.40
2023-03-24T06:10:10.339Z,91.50
2023-03-24T06:12:21.956Z,91.50
2023-03-24T06:14:34.807Z,91.50
2023-03-24T06:16:44.294Z,91.54
2023-03-24T06:18:52.547Z,91.53
2023-03-24T06:21:18.550Z,91.51
2023-03-24T06:23:25.972Z,91.49
2023-03-24T06:25:50.844Z,91.59
2023-03-24T06:28:04.270Z,91.69
2023-03-24T06:30:11.018Z,91.60
2023-03-24T06:32:14.273Z,91.61
2023-03-24T06:34:18.871Z,91.51
2023-03-24T06:36:35.780Z,91.55
2023-03-24T06:38:41.980Z,91.62
2023-03-24T06:40:45.523Z,91.54
2023-03-24T06:42:49.626Z,91.61
2023-03-24T06:44:53.216Z,91.61
2023-03-24T06:46:56.697Z,91.51
2023-03-24T06:48:59.887Z,91.71
2023-03-24T06:51:03.221Z,91.56
2023-03-24T06:53:06.558Z,91.44
2023-03-24T06:55:13.714Z,91.42
2023-03-24T06:57:17.975Z,91.45
2023-03-24T06:59:45.034Z,91.26
2023-03-24T07:01:49.578Z,91.30
2023-03-24T07:03:59.291Z,91.18
2023-03-24T07:06:19.616Z,91.37
2023-03-24T07:08:37.400Z,91.34
2023-03-24T07:10:43.414Z,90.85
2023-03-24T07:12:48.092Z,90.39
2023-03-24T07:14:52.053Z,90.08
2023-03-24T07:16:55.294Z,89.77
2023-03-24T07:19:15.431Z,88.99
2023-03-24T07:21:22.187Z,88.40
2023-03-24T07:23:28.042Z,87.74
2023-03-24T07:25:41.268Z,86.83
2023-03-24T07:27:57.484Z,86.26
2023-03-24T07:30:01.398Z,86.21
2023-03-24T07:32:15.719Z,85.98
2023-03-24T07:34:19.276Z,85.38
2023-03-24T07:36:22.606Z,84.93
2023-03-24T07:38:25.985Z,84.04
2023-03-24T07:40:35.066Z,83.85
2023-03-24T07:42:38.648Z,83.24
2023-03-24T07:45:03.535Z,83.14
2023-03-24T07:47:06.913Z,83.22
2023-03-24T07:49:18.862Z,83.25
2023-03-24T07:51:28.430Z,83.14
2023-03-24T07:53:50.183Z,83.06
2023-03-24T07:56:16.113Z,82.23
2023-03-24T07:58:28.244Z,81.98
2023-03-24T08:00:51.269Z,79.29
2023-03-24T08:03:15.547Z,78.47
2023-03-24T08:05:19.899Z,78.72
2023-03-24T08:07:43.093Z,79.02
2023-03-24T08:09:46.422Z,78.66
2023-03-24T08:11:49.665Z,77.86
2023-03-24T08:13:52.896Z,77.28
2023-03-24T08:15:57.553Z,77.10
2023-03-24T08:18:00.937Z,77.45
2023-03-24T08:20:13.112Z,76.86
2023-03-24T08:22:16.385Z,76.58
2023-03-24T08:24:20.011Z,76.59
2023-03-24T08:26:27.000Z,76.08
2023-03-24T08:28:30.312Z,74.66
2023-03-24T08:30:33.562Z,73.77
2023-03-24T08:32:38.752Z,73.17
2023-03-24T08:34:42.006Z,73.46
2023-03-24T08:36:45.141Z,73.59
2023-03-24T08:38:48.405Z,73.71
2023-03-24T08:40:53.217Z,73.35
2023-03-24T08:42:58.673Z,73.07
2023-03-24T08:45:01.861Z,72.64
2023-03-24T08:47:05.251Z,72.63
2023-03-24T08:49:10.079Z,72.63
2023-03-24T08:51:14.672Z,72.34
2023-03-24T08:53:17.988Z,72.58
2023-03-24T08:55:22.102Z,72.92
2023-03-24T08:57:25.698Z,72.56
2023-03-24T08:59:29.430Z,71.91
2023-03-24T09:01:34.070Z,70.36
2023-03-24T09:03:39.899Z,69.56
2023-03-24T09:05:45.084Z,69.70
2023-03-24T09:07:50.001Z,69.14
2023-03-24T09:09:53.146Z,68.50
2023-03-24T09:11:56.305Z,67.79
2023-03-24T09:13:59.499Z,67.41
2023-03-24T09:16:04.669Z,67.69
2023-03-24T09:18:08.286Z,67.31
2023-03-24T09:20:13.783Z,66.90
2023-03-24T09:22:18.449Z,67.33
2023-03-24T09:24:21.795Z,67.19
2023-03-24T09:26:24.937Z,67.17
2023-03-24T09:28:28.183Z,67.03
2023-03-24T09:30:32.670Z,66.55
2023-03-24T09:32:37.436Z,65.98
2023-03-24T09:34:40.820Z,66.06
2023-03-24T09:36:43.996Z,65.98
2023-03-24T09:38:48.774Z,65.59
2023-03-24T09:40:56.206Z,65.35
2023-03-24T09:43:04.326Z,65.50
2023-03-24T09:45:14.339Z,65.35
2023-03-24T09:47:26.606Z,65.54
2023-03-24T09:49:32.637Z,65.89
2023-03-24T09:51:40.961Z,65.68
2023-03-24T09:53:51.046Z,64.77
2023-03-24T09:55:54.309Z,64.97
2023-03-24T09:58:01.925Z,65.08
2023-03-24T10:00:18.438Z,65.40
2023-03-24T10:02:23.589Z,65.38
2023-03-24T10:04:32.098Z,65.58
2023-03-24T10:06:40.118Z,64.97
2023-03-24T10:08:48.090Z,65.08
2023-03-24T10:11:00.032Z,64.37
2023-03-24T10:13:08.107Z,64.88
2023-03-24T10:15:30.898Z,64.81
2023-03-24T10:17:48.110Z,64.41
2023-03-24T10:20:00.203Z,64.78
2023-03-24T10:22:12.926Z,64.12
2023-03-24T10:24:24.810Z,63.52
2023-03-24T10:26:41.392Z,63.38
2023-03-24T10:28:51.148Z,63.22
2023-03-24T10:30:58.905Z,62.77
2023-03-24T10:33:02.648Z,62.81
2023-03-24T10:35:10.055Z,62.41
2023-03-24T10:37:15.695Z,62.47
2023-03-24T10:39:22.415Z,62.36
2023-03-24T10:41:30.690Z,62.03
2023-03-24T10:43:35.371Z,62.32
2023-03-24T10:45:42.087Z,62.29
2023-03-24T10:47:45.975Z,62.75
2023-03-24T10:49:55.013Z,62.06
2023-03-24T10:52:03.924Z,62.08
2023-03-24T10:54:17.036Z,62.22
2023-03-24T10:56:39.623Z,62.12
2023-03-24T10:58:45.489Z,61.97
2023-03-24T11:00:50.263Z,61.40
2023-03-24T11:02:59.050Z,61.46
2023-03-24T11:05:05.385Z,61.36
2023-03-24T11:07:16.533Z,61.35
2023-03-24T11:09:21.748Z,60.54
2023-03-24T11:11:31.884Z,60.49
2023-03-24T11:13:35.897Z,60.29
2023-03-24T11:15:54.538Z,60.35
2023-03-24T11:17:59.328Z,60.59
2023-03-24T11:20:05.949Z,60.72
2023-03-24T11:22:12.503Z,59.90
2023-03-24T11:24:18.083Z,59.50
2023-03-24T11:26:23.834Z,59.68
2023-03-24T11:28:28.785Z,59.73
2023-03-24T11:30:36.181Z,60.18
2023-03-24T11:32:47.461Z,60.16
2023-03-24T11:34:57.632Z,60.30
2023-03-24T11:37:03.554Z,59.29
2023-03-24T11:39:13.035Z,58.03
2023-03-24T11:41:22.671Z,57.53
2023-03-24T11:43:27.214Z,55.94
2023-03-24T11:45:39.192Z,56.11
2023-03-24T11:47:44.519Z,56.19
2023-03-24T11:49:52.733Z,55.81
2023-03-24T11:51:57.137Z,55.81
2023-03-24T11:54:03.382Z,55.91
2023-03-24T11:56:14.352Z,55.61
2023-03-24T11:58:28.088Z,54.05
2023-03-24T12:00:35.084Z,54.03
2023-03-24T12:02:53.823Z,53.86
2023-03-24T12:05:21.789Z,52.90
2023-03-24T12:08:01.071Z,53.30
2023-03-24T12:10:19.086Z,53.37
2023-03-24T12:12:33.597Z,52.33
2023-03-24T12:14:52.914Z,51.73
2023-03-24T12:17:06.736Z,51.77
2023-03-24T12:19:35.649Z,50.82
2023-03-24T12:21:50.611Z,49.26
2023-03-24T12:23:59.791Z,49.42
2023-03-24T12:26:21.449Z,48.44
2023-03-24T12:28:38.831Z,49.47
2023-03-24T12:30:48.567Z,49.30
2023-03-24T12:33:01.382Z,47.85
2023-03-24T12:35:38.955Z,48.42
2023-03-24T12:37:50.553Z,48.45
2023-03-24T12:40:06.470Z,47.10
2023-03-24T12:42:12.681Z,46.73
2023-03-24T12:44:45.054Z,45.95
2023-03-24T12:46:56.650Z,45.79
2023-03-24T12:49:15.226Z,45.98
2023-03-24T12:51:31.377Z,46.01
2023-03-24T12:53:47.155Z,46.12
2023-03-24T12:55:54.169Z,45.92
2023-03-24T12:58:02.009Z,44.81
2023-03-24T13:00:12.670Z,45.28
2023-03-24T13:02:24.926Z,45.61
2023-03-24T13:04:33.571Z,45.57
2023-03-24T13:06:44.885Z,45.23
2023-03-24T13:09:15.111Z,45.24
2023-03-24T13:11:32.645Z,45.04
2023-03-24T13:13:39.474Z,44.96
2023-03-24T13:15:46.329Z,44.16
2023-03-24T13:17:54.816Z,44.07
2023-03-24T13:19:59.269Z,43.02
2023-03-24T13:22:07.855Z,43.05
2023-03-24T13:24:15.303Z,42.65
2023-03-24T13:26:28.016Z,43.32
2023-03-24T13:28:38.458Z,42.16
2023-03-24T13:30:43.765Z,42.28
2023-03-24T13:32:51.650Z,42.60
2023-03-24T13:34:59.341Z,42.53
2023-03-24T13:37:06.662Z,42.69
2023-03-24T13:39:15.287Z,43.06
2023-03-24T13:41:21.272Z,43.54
2023-03-24T13:43:30.271Z,43.88
2023-03-24T13:45:41.885Z,43.91
2023-03-24T13:47:51.726Z,44.09
2023-03-24T13:50:00.988Z,43.74
2023-03-24T13:52:08.522Z,43.50
2023-03-24T13:54:17.482Z,42.88
2023-03-24T13:56:27.341Z,42.32
2023-03-24T13:58:48.626Z,41.93
2023-03-24T14:01:18.164Z,41.46
2023-03-24T14:03:33.991Z,40.91
2023-03-24T14:05:59.429Z,39.99
2023-03-24T14:08:16.137Z,40.09
2023-03-24T14:10:38.928Z,39.99
2023-03-24T14:12:53.997Z,39.59
2023-03-24T14:15:19.362Z,39.11
2023-03-24T14:17:23.556Z,39.64
2023-03-24T14:19:39.199Z,39.61
2023-03-24T14:21:42.683Z,38.81
2023-03-24T14:23:49.469Z,39.53
2023-03-24T14:25:55.742Z,38.98
2023-03-24T14:28:20.777Z,39.33
2023-03-24T14:30:28.332Z,40.18
2023-03-24T14:32:38.089Z,39.83
2023-03-24T14:34:52.615Z,39.47
2023-03-24T14:37:01.454Z,39.26
2023-03-24T14:39:13.260Z,38.11
2023-03-24T14:41:23.322Z,37.20
2023-03-24T14:43:28.548Z,36.60
2023-03-24T14:45:43.557Z,37.03
2023-03-24T14:47:47.183Z,36.92
2023-03-24T14:49:53.564Z,37.47
2023-03-24T14:52:02.203Z,37.21
2023-03-24T14:54:08.537Z,37.05
2023-03-24T14:56:18.217Z,37.49
2023-03-24T14:58:24.869Z,37.46
2023-03-24T15:00:34.382Z,37.50
2023-03-24T15:02:41.940Z,36.95
2023-03-24T15:05:22.574Z,35.36
2023-03-24T15:07:26.146Z,35.34
2023-03-24T15:09:29.472Z,35.43
2023-03-24T15:11:35.894Z,35.21
2023-03-24T15:13:42.161Z,35.34
2023-03-24T15:15:48.797Z,35.69
2023-03-24T15:17:53.264Z,35.20
2023-03-24T15:19:56.580Z,35.97
2023-03-24T15:22:02.679Z,35.75
2023-03-24T15:24:27.763Z,35.68
2023-03-24T15:26:33.328Z,36.16
2023-03-24T15:28:36.844Z,35.78
2023-03-24T15:30:40.193Z,36.17
2023-03-24T15:32:46.297Z,36.64
2023-03-24T15:34:52.752Z,35.94
2023-03-24T15:36:57.432Z,36.40
2023-03-24T15:39:00.757Z,36.36
2023-03-24T15:41:06.814Z,36.33
2023-03-24T15:43:20.375Z,36.95
2023-03-24T15:45:27.497Z,37.33
2023-03-24T15:47:33.661Z,37.64
2023-03-24T15:49:39.751Z,38.29
2023-03-24T15:51:50.671Z,38.05
2023-03-24T15:53:59.090Z,37.81
2023-03-24T15:56:06.703Z,37.78
2023-03-24T15:58:25.507Z,37.97
2023-03-24T16:00:32.248Z,37.63
2023-03-24T16:02:39.183Z,37.81
2023-03-24T16:04:42.605Z,37.97
2023-03-24T16:06:52.866Z,38.02
2023-03-24T16:09:01.302Z,38.17
2023-03-24T16:11:08.080Z,38.53
2023-03-24T16:13:19.463Z,39.37
2023-03-24T16:15:24.331Z,39.54
2023-03-24T16:17:27.845Z,39.71
2023-03-24T16:19:31.437Z,40.39
2023-03-24T16:21:34.596Z,40.78
2023-03-24T16:23:37.807Z,41.09
2023-03-24T16:25:41.532Z,41.28
2023-03-24T16:27:44.695Z,41.71
2023-03-24T16:29:47.941Z,41.96
2023-03-24T16:31:54.162Z,42.35
2023-03-24T16:33:58.243Z,42.73
2023-03-24T16:36:01.889Z,42.75
2023-03-24T16:38:05.249Z,43.01
2023-03-24T16:40:21.289Z,43.32
2023-03-24T16:42:24.438Z,43.93
2023-03-24T16:44:27.773Z,44.02
2023-03-24T16:46:33.802Z,44.78
2023-03-24T16:48:38.435Z,45.12
2023-03-24T16:50:43.228Z,45.78
2023-03-24T16:52:46.440Z,45.99
2023-03-24T16:54:50.549Z,46.43
2023-03-24T16:56:53.725Z,46.72
2023-03-24T16:58:57.338Z,47.27
2023-03-24T17:01:01.669Z,47.52
2023-03-24T17:03:06.021Z,47.54
2023-03-24T17:05:20.720Z,47.83
2023-03-24T17:07:23.960Z,48.29
2023-03-24T17:09:28.613Z,48.70
2023-03-24T17:11:35.041Z,48.86
2023-03-24T17:13:38.309Z,49.44
2023-03-24T17:15:41.666Z,49.83
2023-03-24T17:17:45.617Z,50.03
2023-03-24T17:19:49.112Z,50.21
2023-03-24T17:21:59.175Z,50.64
2023-03-24T17:24:05.229Z,51.03
2023-03-24T17:26:08.617Z,51.10
2023-03-24T17:28:15.044Z,51.48
2023-03-24T17:30:20.868Z,51.75
2023-03-24T17:32:29.981Z,51.96
2023-03-24T17:34:33.887Z,52.31
2023-03-24T17:36:37.592Z,52.72
2023-03-24T17:38:43.535Z,52.88
2023-03-24T17:40:47.674Z,52.91
2023-03-24T17:42:51.806Z,53.39
2023-03-24T17:44:55.191Z,53.38
2023-03-24T17:46:58.534Z,53.58
2023-03-24T17:49:01.699Z,53.99
2023-03-24T17:51:05.817Z,54.38
2023-03-24T17:53:19.994Z,54.67
2023-03-24T17:55:25.090Z,55.00
2023-03-24T17:57:28.381Z,55.35
2023-03-24T17:59:31.573Z,55.85
2023-03-24T18:01:39.393Z,56.11
2023-03-24T18:03:43.046Z,56.46
2023-03-24T18:05:46.664Z,56.93
2023-03-24T18:07:49.926Z,57.42
2023-03-24T18:09:53.100Z,57.84
2023-03-24T18:11:58.542Z,58.29
2023-03-24T18:14:02.130Z,58.79
2023-03-24T18:16:19.929Z,59.09
2023-03-24T18:18:24.652Z,59.77
2023-03-24T18:20:28.095Z,60.12
2023-03-24T18:22:31.347Z,60.48
2023-03-24T18:25:03.844Z,60.71
2023-03-24T18:27:11.728Z,60.81
2023-03-24T18:29:15.760Z,61.27
2023-03-24T18:31:21.776Z,61.40
2023-03-24T18:33:25.469Z,61.57
2023-03-24T18:35:29.535Z,61.69
2023-03-24T18:37:33.227Z,61.97
2023-03-24T18:39:36.793Z,62.12
2023-03-24T18:41:41.073Z,62.55
2023-03-24T18:43:47.875Z,62.44
2023-03-24T18:45:51.719Z,62.48
2023-03-24T18:47:55.173Z,62.45
2023-03-24T18:49:58.514Z,62.87
2023-03-24T18:52:01.754Z,63.04
2023-03-24T18:54:05.703Z,62.89
2023-03-24T18:56:09.641Z,63.38
2023-03-24T18:58:15.275Z,63.54
2023-03-24T19:00:21.790Z,63.71
2023-03-24T19:02:25.127Z,63.96
2023-03-24T19:04:28.404Z,64.19
2023-03-24T19:06:32.065Z,64.39
2023-03-24T19:08:37.851Z,64.58
2023-03-24T19:10:42.898Z,64.72
2023-03-24T19:12:46.405Z,65.01
2023-03-24T19:14:49.757Z,65.33
2023-03-24T19:16:54.347Z,65.45
2023-03-24T19:18:58.602Z,65.84
2023-03-24T19:21:02.168Z,65.98
2023-03-24T19:23:05.732Z,66.17
2023-03-24T19:25:09.495Z,66.41
2023-03-24T19:27:12.724Z,66.51
2023-03-24T19:29:16.381Z,66.57
2023-03-24T19:31:21.379Z,67.07
2023-03-24T19:33:26.701Z,67.13
2023-03-24T19:35:31.434Z,67.34
2023-03-24T19:37:34.993Z,67.62
2023-03-24T19:39:39.531Z,68.08
2023-03-24T19:41:42.922Z,67.97
2023-03-24T19:43:46.401Z,68.25
2023-03-24T19:45:51.287Z,68.58
2023-03-24T19:47:54.699Z,68.60
2023-03-24T19:49:59.374Z,68.92
2023-03-24T19:52:03.941Z,69.09
2023-03-24T19:54:07.210Z,69.28
2023-03-24T19:56:10.772Z,69.30
2023-03-24T19:58:14.025Z,69.48
2023-03-24T20:00:17.648Z,69.62
2023-03-24T20:02:22.099Z,69.94
2023-03-24T20:04:25.366Z,70.14
2023-03-24T20:06:30.298Z,70.23
2023-03-24T20:08:33.679Z,70.39
2023-03-24T20:10:38.588Z,70.43
2023-03-24T20:12:41.876Z,70.46
2023-03-24T20:14:45.097Z,70.48
2023-03-24T20:16:48.313Z,70.68
2023-03-24T20:18:51.546Z,70.74
2023-03-24T20:20:56.367Z,71.00
2023-03-24T20:23:00.988Z,71.14
2023-03-24T20:25:04.914Z,71.23
2023-03-24T20:27:08.671Z,71.19
2023-03-24T20:29:12.167Z,71.24
2023-03-24T20:31:15.469Z,71.19
2023-03-24T20:33:18.834Z,71.27
2023-03-24T20:35:22.509Z,71.36
2023-03-24T20:37:29.251Z,71.40
2023-03-24T20:39:33.871Z,71.53
2023-03-24T20:41:37.126Z,71.53
2023-03-24T20:43:40.303Z,71.62
2023-03-24T20:45:43.538Z,71.79
2023-03-24T20:47:47.222Z,71.64
2023-03-24T20:49:50.579Z,71.95
2023-03-24T20:51:54.032Z,71.85
2023-03-24T20:53:57.799Z,71.99
2023-03-24T20:56:04.376Z,72.00
2023-03-24T20:58:08.373Z,72.08
2023-03-24T21:00:14.326Z,72.30
2023-03-24T21:02:18.985Z,72.32
2023-03-24T21:04:22.317Z,72.56
2023-03-24T21:06:25.525Z,72.63
2023-03-24T21:08:28.979Z,72.88
2023-03-24T21:10:32.360Z,73.00
2023-03-24T21:12:52.760Z,73.24
2023-03-24T21:14:57.627Z,73.35
2023-03-24T21:17:00.889Z,73.51
2023-03-24T21:19:04.216Z,73.64
2023-03-24T21:21:12.334Z,73.95
2023-03-24T21:23:18.569Z,73.87
2023-03-24T21:25:22.267Z,74.01
2023-03-24T21:27:25.490Z,74.00
2023-03-24T21:29:30.091Z,74.17
2023-03-24T21:31:33.286Z,74.26
2023-03-24T21:33:39.980Z,74.55
2023-03-24T21:35:43.300Z,74.73
2023-03-24T21:37:47.747Z,74.83
2023-03-24T21:39:51.389Z,74.96
2023-03-24T21:41:54.790Z,75.13
2023-03-24T21:44:00.742Z,75.29
2023-03-24T21:46:06.734Z,75.32
2023-03-24T21:48:14.035Z,75.51
2023-03-24T21:50:23.122Z,75.73
2023-03-24T21:52:29.510Z,75.86
2023-03-24T21:54:33.396Z,75.95
2023-03-24T21:56:37.995Z,75.98
2023-03-24T21:58:41.611Z,76.07
2023-03-24T22:00:46.330Z,76.14
2023-03-24T22:02:52.752Z,76.30
2023-03-24T22:05:01.526Z,76.58
2023-03-24T22:07:07.330Z,76.60
2023-03-24T22:09:11.193Z,76.75
2023-03-24T22:11:15.436Z,76.73
2023-03-24T22:13:18.611Z,76.67
2023-03-24T22:15:22.458Z,76.71
2023-03-24T22:17:25.816Z,76.70
2023-03-24T22:19:30.603Z,76.63
2023-03-24T22:21:33.925Z,76.82
2023-03-24T22:23:39.712Z,76.95
2023-03-24T22:25:43.417Z,76.89
2023-03-24T22:27:50.085Z,76.95
2023-03-24T22:29:55.405Z,77.04
2023-03-24T22:31:58.679Z,77.19
2023-03-24T22:34:01.873Z,77.18
2023-03-24T22:36:07.640Z,77.29
2023-03-24T22:38:14.909Z,77.42
2023-03-24T22:40:18.181Z,77.45
2023-03-24T22:42:22.140Z,77.54
2023-03-24T22:44:25.396Z,77.57
2023-03-24T22:46:28.581Z,77.61
2023-03-24T22:48:31.959Z,77.46
2023-03-24T22:50:35.439Z,77.83
2023-03-24T22:52:40.084Z,77.96
2023-03-24T22:54:43.313Z,77.98
2023-03-24T22:56:46.647Z,78.22
2023-03-24T22:58:49.874Z,78.39
2023-03-24T23:00:56.805Z,78.48
2023-03-24T23:03:00.140Z,78.78
2023-03-24T23:05:03.477Z,78.93
2023-03-24T23:07:07.693Z,79.15
2023-03-24T23:09:12.366Z,79.38
2023-03-24T23:11:15.737Z,79.71
2023-03-24T23:13:18.940Z,79.84
2023-03-24T23:15:23.338Z,80.09
2023-03-24T23:17:26.983Z,80.23
2023-03-24T23:19:33.226Z,80.42
2023-03-24T23:21:37.290Z,80.50
2023-03-24T23:23:42.063Z,80.62
2023-03-24T23:25:46.797Z,80.63
2023-03-24T23:27:50.103Z,80.65
2023-03-24T23:29:53.380Z,80.71
2023-03-24T23:31:56.664Z,80.77
2023-03-24T23:34:00.353Z,81.13
2023-03-24T23:36:04.418Z,81.04
2023-03-24T23:38:07.791Z,81.12
2023-03-24T23:40:15.014Z,81.39
2023-03-24T23:42:19.841Z,81.32
2023-03-24T23:44:23.110Z,81.57
2023-03-24T23:46:26.496Z,81.75
2023-03-24T23:48:32.367Z,81.81
2023-03-24T23:50:35.624Z,82.03
2023-03-24T23:52:41.255Z,81.92
2023-03-24T23:54:44.578Z,81.94
2023-03-24T23:56:47.794Z,81.79
2023-03-24T23:58:52.415Z,81.91
